Time;durP1;ratioP1;P1;durP2;ratioP2;P2;SDS_P1;SDS_P2;PMS_P1;PMS_P2;Temp;Humidity;BMP_temperature;BMP_pressure;BME280_temperature;BME280_humidity;BME280_pressure;Samples;Min_cycle;Max_cycle;Signal;HPM_P1;HPM_P2
2023/05/17 00:01:02;;;;;;;;;1.00;1.00;;;;;8.87;64.87;100563.41;5117279;28;8844;-60
2023/05/17 00:03:29;;;;;;;;;1.00;1.00;;;;;8.85;64.66;100568.81;5116777;28;8942;-60
2023/05/17 00:05:57;;;;;;;;;1.00;1.00;;;;;8.85;64.83;100568.81;5117374;28;8832;-60
2023/05/17 00:08:25;;;;;;;;;0.25;0.25;;;;;8.83;64.55;100567.22;5117342;28;8924;-60
2023/05/17 00:10:53;;;;;;;;;1.00;1.00;;;;;8.81;64.85;100561.97;5117219;28;8852;-60
2023/05/17 00:13:21;;;;;;;;;1.00;1.00;;;;;8.78;65.06;100561.31;5117110;28;8812;-60
2023/05/17 00:15:48;;;;;;;;;1.00;1.00;;;;;8.74;64.99;100571.28;5116795;28;8888;-60
2023/05/17 00:18:16;;;;;;;;;3.00;2.00;;;;;8.73;65.10;100579.38;5116863;28;8836;-60
2023/05/17 00:20:44;;;;;;;;;1.00;1.00;;;;;8.70;65.41;100574.22;5117439;28;8832;-60
2023/05/17 00:23:12;;;;;;;;;0.75;0.75;;;;;8.68;65.06;100574.31;5116789;28;9509;-60
2023/05/17 00:25:40;;;;;;;;;2.00;2.00;;;;;8.64;65.12;100564.84;5116908;28;8978;-60
2023/05/17 00:28:07;;;;;;;;;2.00;1.00;;;;;8.63;65.11;100573.75;5116613;28;8905;-60
2023/05/17 00:30:37;;;;;;;;;1.00;1.00;;;;;8.62;65.41;100574.72;5116573;28;8838;-60
2023/05/17 00:33:05;;;;;;;;;1.00;1.00;;;;;8.61;65.44;100574.78;5117256;28;9498;-60
2023/05/17 00:35:32;;;;;;;;;2.25;2.00;;;;;8.59;65.36;100571.38;5116111;28;8936;-60
2023/05/17 00:38:00;;;;;;;;;2.00;1.00;;;;;8.56;65.05;100571.56;5116836;28;8950;-60
2023/05/17 00:40:28;;;;;;;;;1.00;1.00;;;;;8.53;65.04;100567.28;5116625;28;8936;-60
2023/05/17 00:42:56;;;;;;;;;1.75;0.75;;;;;8.51;65.68;100563.88;5116811;28;8843;-60
2023/05/17 00:45:23;;;;;;;;;1.00;1.00;;;;;8.49;65.20;100565.78;5116497;28;9605;-60
2023/05/17 00:47:51;;;;;;;;;3.00;2.00;;;;;8.47;65.62;100566.81;5116388;28;9616;-60
2023/05/17 00:50:19;;;;;;;;;1.00;0.75;;;;;8.46;65.64;100570.44;5116304;28;8854;-60
2023/05/17 00:52:47;;;;;;;;;0.75;0.25;;;;;8.45;65.52;100574.03;5116634;28;9567;-63
2023/05/17 00:55:14;;;;;;;;;1.00;1.00;;;;;8.43;65.80;100574.13;5115930;28;8816;-62
2023/05/17 00:57:42;;;;;;;;;1.00;1.00;;;;;8.42;65.48;100577.72;5116810;28;9834;-62
2023/05/17 01:00:10;;;;;;;;;1.00;1.00;;;;;8.42;65.74;100576.84;5116821;28;8844;-63
2023/05/17 01:02:38;;;;;;;;;1.00;1.00;;;;;8.42;65.66;100577.72;5116367;28;8905;-64
2023/05/17 01:05:06;;;;;;;;;2.50;1.00;;;;;8.42;65.72;100571.53;5116294;28;8917;-62
2023/05/17 01:07:34;;;;;;;;;3.80;3.00;;;;;8.40;65.86;100576.97;5116692;28;8852;-62
2023/05/17 01:10:02;;;;;;;;;5.00;4.00;;;;;8.40;65.72;100582.28;5116491;28;8820;-62
2023/05/17 01:12:29;;;;;;;;;3.00;1.00;;;;;8.39;65.64;100575.25;5116083;28;8959;-62
2023/05/17 01:14:57;;;;;;;;;3.60;3.00;;;;;8.39;65.76;100575.25;5116490;28;8824;-62
2023/05/17 01:17:25;;;;;;;;;1.00;1.00;;;;;8.39;65.51;100569.09;5116195;28;8909;-63
2023/05/17 01:19:53;;;;;;;;;0.50;0.00;;;;;8.39;65.37;100574.41;5116123;28;8824;-62
2023/05/17 01:22:21;;;;;;;;;1.00;1.00;;;;;8.36;65.57;100580.72;5115916;28;8917;-62
2023/05/17 01:24:49;;;;;;;;;1.50;1.00;;;;;8.35;66.06;100581.69;5115718;28;8832;-62
2023/05/17 01:27:16;;;;;;;;;1.00;1.00;;;;;8.34;66.00;100582.63;5116263;28;8966;-62
2023/05/17 01:29:44;;;;;;;;;1.50;1.50;;;;;8.32;65.93;100573.94;5115798;28;8851;-62
2023/05/17 01:32:12;;;;;;;;;3.25;2.50;;;;;8.31;65.99;100576.66;5116144;28;8854;-62
2023/05/17 01:34:40;;;;;;;;;3.00;3.00;;;;;8.29;65.82;100579.41;5116366;28;9636;-62
2023/05/17 01:37:07;;;;;;;;;2.00;2.00;;;;;8.28;66.00;100580.34;5115352;28;8812;-62
2023/05/17 01:39:35;;;;;;;;;3.20;1.40;;;;;8.25;65.95;100580.53;5115958;28;8835;-62
2023/05/17 01:42:03;;;;;;;;;1.00;1.00;;;;;8.25;66.41;100572.59;5115635;28;8835;-62
2023/05/17 01:44:31;;;;;;;;;3.00;3.00;;;;;8.24;66.05;100578.84;5115985;28;8820;-61
2023/05/17 01:46:59;;;;;;;;;1.00;1.00;;;;;8.23;65.98;100582.44;5116344;28;8835;-62
2023/05/17 01:49:27;;;;;;;;;0.75;0.75;;;;;8.22;66.14;100586.00;5120221;28;8832;-60
2023/05/17 01:51:54;;;;;;;;;3.00;3.00;;;;;8.20;66.18;100587.91;5120114;28;8855;-62
2023/05/17 01:54:22;;;;;;;;;2.00;1.00;;;;;8.18;66.43;100587.13;5120070;28;8905;-62
2023/05/17 01:56:50;;;;;;;;;3.50;3.50;;;;;8.18;65.92;100586.25;5119048;28;8955;-62
2023/05/17 01:59:18;;;;;;;;;3.00;3.00;;;;;8.17;66.31;100581.91;5119881;28;8832;-65
2023/05/17 02:01:46;;;;;;;;;3.60;3.00;;;;;8.17;66.20;100580.13;5119519;28;9586;-62
2023/05/17 02:04:14;;;;;;;;;1.00;1.00;;;;;8.17;66.19;100588.06;5119595;28;8940;-62
2023/05/17 02:06:42;;;;;;;;;3.00;3.00;;;;;8.17;65.96;100593.38;5119528;28;9497;-62
2023/05/17 02:09:10;;;;;;;;;3.00;3.00;;;;;8.17;66.67;100587.22;5119491;28;8974;-61
2023/05/17 02:11:38;;;;;;;;;3.00;3.00;;;;;8.17;66.28;100595.16;5119745;28;8885;-60
2023/05/17 02:14:05;;;;;;;;;0.00;0.00;;;;;8.17;66.27;100601.34;5119472;28;8831;-60
2023/05/17 02:16:33;;;;;;;;;4.00;3.00;;;;;8.17;66.11;100595.16;5118877;28;8816;-60
2023/05/17 02:19:01;;;;;;;;;3.25;3.25;;;;;8.15;66.44;100602.38;5119411;28;8843;-60
2023/05/17 02:21:30;;;;;;;;;3.75;3.00;;;;;8.15;66.62;100605.84;5118973;28;8816;-60
2023/05/17 02:23:58;;;;;;;;;3.75;3.75;;;;;8.14;66.00;100608.63;5119499;28;8824;-61
2023/05/17 02:26:26;;;;;;;;;2.00;2.00;;;;;8.08;66.54;100607.19;5118507;28;8816;-60
2023/05/17 02:28:54;;;;;;;;;1.00;1.00;;;;;8.03;66.85;100614.56;5119157;28;8827;-62
2023/05/17 02:31:23;;;;;;;;;3.00;3.00;;;;;7.96;66.94;100610.53;5119130;28;8836;-60
2023/05/17 02:33:51;;;;;;;;;3.50;3.50;;;;;7.90;67.12;100605.59;5119094;28;8957;-60
2023/05/17 02:36:20;;;;;;;;;3.00;3.00;;;;;7.85;67.09;100610.31;5118840;28;8957;-60
2023/05/17 02:38:47;;;;;;;;;3.00;3.00;;;;;7.84;67.15;100613.06;5098504;28;8842;-61
2023/05/17 02:41:15;;;;;;;;;2.60;2.60;;;;;7.84;67.02;100613.06;5098445;28;8850;-60
2023/05/17 02:43:43;;;;;;;;;2.00;2.00;;;;;7.83;67.23;100612.19;5098169;28;8837;-61
2023/05/17 02:46:11;;;;;;;;;3.20;3.20;;;;;7.82;67.18;100613.13;5109073;28;8835;-62
2023/05/17 02:48:39;;;;;;;;;5.20;4.40;;;;;7.80;67.22;100617.69;5119009;28;8850;-63
2023/05/17 02:51:06;;;;;;;;;4.80;3.80;;;;;7.76;67.19;100618.78;5118409;28;8866;-63
2023/05/17 02:53:34;;;;;;;;;6.00;6.00;;;;;7.73;67.98;100616.31;5118308;28;8820;-62
2023/05/17 02:56:02;;;;;;;;;7.00;5.80;;;;;7.75;67.19;100618.91;5118423;28;8816;-62
2023/05/17 02:58:30;;;;;;;;;3.40;3.40;;;;;7.78;67.15;100614.28;5117975;28;8827;-62
2023/05/17 03:00:58;;;;;;;;;3.00;3.00;;;;;7.84;67.16;100618.38;5118666;28;8827;-62
2023/05/17 03:03:26;;;;;;;;;3.40;1.80;;;;;7.89;67.23;100611.84;5118724;28;8928;-63
2023/05/17 03:05:54;;;;;;;;;3.60;3.00;;;;;7.96;66.99;100617.63;5118658;28;8836;-62
2023/05/17 03:08:21;;;;;;;;;4.00;3.20;;;;;8.04;66.99;100616.25;5118561;28;8828;-63
2023/05/17 03:10:50;;;;;;;;;1.00;1.00;;;;;8.11;66.48;100617.59;5118494;28;8828;-61
2023/05/17 03:13:18;;;;;;;;;5.20;4.80;;;;;8.17;66.71;100617.25;5118772;28;8974;-62
2023/05/17 03:15:45;;;;;;;;;6.60;4.00;;;;;8.22;66.67;100611.72;5118124;28;8816;-62
2023/05/17 03:18:13;;;;;;;;;3.60;3.60;;;;;8.27;66.44;100615.78;5118195;28;9512;-62
2023/05/17 03:20:41;;;;;;;;;3.20;3.00;;;;;8.31;66.67;100629.72;5117778;28;8836;-60
2023/05/17 03:23:09;;;;;;;;;3.20;3.20;;;;;8.31;66.38;100630.59;5118410;28;8844;-62
2023/05/17 03:25:36;;;;;;;;;5.20;3.80;;;;;8.31;66.39;100627.94;5117345;28;8959;-62
2023/05/17 03:28:05;;;;;;;;;3.50;3.50;;;;;8.31;66.39;100630.59;5117695;28;8962;-62
2023/05/17 03:30:32;;;;;;;;;6.60;6.00;;;;;8.33;66.38;100635.78;5117615;28;8826;-62
2023/05/17 03:33:00;;;;;;;;;4.00;4.00;;;;;8.35;66.71;100637.41;5117357;28;8832;-62
2023/05/17 03:35:28;;;;;;;;;6.40;6.20;;;;;8.37;66.29;100634.66;5117765;28;8855;-63
2023/05/17 03:37:56;;;;;;;;;4.00;3.00;;;;;8.38;66.42;100639.03;5117434;28;8847;-63
2023/05/17 03:40:24;;;;;;;;;6.00;4.00;;;;;8.37;66.32;100637.31;5116897;28;8843;-62
2023/05/17 03:42:53;;;;;;;;;6.00;5.60;;;;;8.34;66.64;100643.66;5117582;28;8840;-62
2023/05/17 03:45:20;;;;;;;;;4.00;4.00;;;;;8.32;66.62;100642.91;5117413;28;8909;-61
2023/05/17 03:47:48;;;;;;;;;4.80;4.00;;;;;8.30;66.94;100646.59;5117014;28;8835;-61
2023/05/17 03:50:16;;;;;;;;;4.00;4.00;;;;;8.28;66.88;100646.69;5117455;28;8839;-61
2023/05/17 03:52:45;;;;;;;;;3.20;3.20;;;;;8.28;67.06;100645.84;5117017;28;8832;-62
2023/05/17 03:55:12;;;;;;;;;6.00;4.00;;;;;8.29;66.98;100642.25;5117243;28;8842;-61
2023/05/17 03:57:40;;;;;;;;;3.50;3.50;;;;;8.30;66.85;100649.25;5117067;28;9532;-62
2023/05/17 04:00:10;;;;;;;;;9.00;6.00;;;;;8.31;66.83;100651.81;5117075;28;8828;-60
2023/05/17 04:02:38;;;;;;;;;1.00;1.00;;;;;8.35;66.82;100650.69;5117071;28;8844;-63
2023/05/17 04:05:06;;;;;;;;;6.00;6.00;;;;;8.42;66.54;100656.47;5116878;28;8840;-61
2023/05/17 04:07:34;;;;;;;;;4.00;4.00;;;;;8.47;66.68;100657.91;5116315;28;8828;-63
2023/05/17 04:10:02;;;;;;;;;5.20;3.00;;;;;8.52;66.74;100660.28;5115914;28;8836;-63
2023/05/17 04:12:32;;;;;;;;;5.20;4.00;;;;;8.57;66.37;100667.03;5116980;28;8983;-60
2023/05/17 04:15:00;;;;;;;;;4.00;4.00;;;;;8.61;66.32;100663.25;5116446;28;8942;-62
2023/05/17 04:17:27;;;;;;;;;6.20;4.00;;;;;8.66;66.37;100662.97;5116870;28;9537;-61
2023/05/17 04:19:55;;;;;;;;;4.40;4.40;;;;;8.73;66.13;100673.13;5117034;28;8832;-63
2023/05/17 04:22:23;;;;;;;;;5.60;4.00;;;;;8.78;65.84;100676.38;5117162;28;8820;-61
2023/05/17 04:24:50;;;;;;;;;6.40;6.00;;;;;8.82;65.77;100677.88;5116849;28;8958;-60
2023/05/17 04:27:18;;;;;;;;;4.40;4.00;;;;;8.87;65.91;100683.78;5116600;28;8812;-62
2023/05/17 04:29:46;;;;;;;;;3.25;3.25;;;;;8.93;65.72;100687.84;5116508;28;8849;-61
2023/05/17 04:32:14;;;;;;;;;6.50;4.50;;;;;8.98;65.75;100689.25;5116305;28;8958;-61
2023/05/17 04:34:42;;;;;;;;;3.25;3.25;;;;;9.04;65.96;100688.91;5116463;28;8851;-62
2023/05/17 04:37:09;;;;;;;;;6.00;4.00;;;;;9.10;65.63;100690.31;5116011;28;9532;-63
2023/05/17 04:39:37;;;;;;;;;5.50;5.00;;;;;9.17;65.60;100689.84;5116701;28;8979;-62
2023/05/17 04:42:05;;;;;;;;;9.40;6.20;;;;;9.23;65.66;100691.28;5116173;28;9523;-61
2023/05/17 04:44:32;;;;;;;;;4.50;4.50;;;;;9.28;65.45;100692.69;5115891;28;8962;-60
2023/05/17 04:47:01;;;;;;;;;3.00;3.00;;;;;9.33;65.61;100692.44;5115734;28;8820;-61
2023/05/17 04:49:28;;;;;;;;;6.80;6.80;;;;;9.41;65.47;100703.44;5116429;28;8874;-63
2023/05/17 04:51:56;;;;;;;;;6.75;6.25;;;;;9.45;65.53;100704.94;5115931;28;9655;-63
2023/05/17 04:54:24;;;;;;;;;3.50;3.50;;;;;9.48;65.34;100704.75;5115885;28;8848;-61
2023/05/17 04:56:52;;;;;;;;;6.00;5.00;;;;;9.53;64.87;100706.16;5115317;28;8816;-61
2023/05/17 04:59:20;;;;;;;;;4.00;4.00;;;;;9.59;64.88;100715.56;5115161;28;8824;-62
2023/05/17 05:01:48;;;;;;;;;4.00;3.25;;;;;9.63;64.96;100709.09;5116085;28;8994;-61
2023/05/17 05:04:16;;;;;;;;;6.00;6.00;;;;;9.68;65.05;100714.97;5115731;28;8867;-63
2023/05/17 05:06:43;;;;;;;;;7.75;6.50;;;;;9.69;64.95;100717.53;5115715;28;8966;-61
2023/05/17 05:09:11;;;;;;;;;3.25;3.00;;;;;9.74;64.67;100719.91;5116181;28;8849;-62
2023/05/17 05:11:39;;;;;;;;;6.00;6.00;;;;;9.79;64.93;100723.97;5095653;28;8853;-62
2023/05/17 05:14:06;;;;;;;;;3.75;3.75;;;;;9.88;64.71;100725.19;5095299;28;8837;-60
2023/05/17 05:16:35;;;;;;;;;5.00;4.50;;;;;9.94;64.90;100730.97;5095184;28;8834;-63
2023/05/17 05:19:03;;;;;;;;;4.00;4.00;;;;;9.97;64.61;100728.13;5095165;28;8822;-61
2023/05/17 05:21:31;;;;;;;;;4.50;4.50;;;;;10.04;64.90;100737.47;5096438;28;8822;-63
2023/05/17 05:23:58;;;;;;;;;3.00;3.00;;;;;10.10;64.67;100733.53;5098625;28;8857;-62
2023/05/17 05:26:26;;;;;;;;;4.00;3.00;;;;;10.17;64.51;100741.00;5099026;28;8834;-61
2023/05/17 05:28:54;;;;;;;;;7.00;6.00;;;;;10.25;64.34;100736.03;5098698;28;8911;-60
2023/05/17 05:31:22;;;;;;;;;4.00;4.00;;;;;10.34;64.58;100737.25;5098309;28;8976;-63
2023/05/17 05:33:50;;;;;;;;;5.00;4.00;;;;;10.43;64.53;100740.16;5098598;28;8919;-63
2023/05/17 05:36:17;;;;;;;;;4.00;4.00;;;;;10.55;64.13;100744.66;5099353;28;8927;-61
2023/05/17 05:38:47;;;;;;;;;4.00;4.00;;;;;10.65;63.90;100748.44;5099556;28;9805;-63
2023/05/17 05:41:15;;;;;;;;;4.50;4.50;;;;;10.68;63.91;100756.19;5098856;28;8822;-62
2023/05/17 05:43:42;;;;;;;;;4.00;3.00;;;;;10.77;63.60;100750.25;5098120;28;8866;-61
2023/05/17 05:46:10;;;;;;;;;5.50;5.50;;;;;10.90;63.80;100753.81;5097523;28;9598;-60
2023/05/17 05:48:40;;;;;;;;;4.00;3.50;;;;;11.02;63.99;100752.97;5097218;28;8857;-61
2023/05/17 05:51:09;;;;;;;;;3.50;3.50;;;;;11.16;64.21;100750.19;5097281;28;8834;-60
2023/05/17 05:53:37;;;;;;;;;5.50;4.75;;;;;11.27;63.82;100752.97;5097096;28;8848;-61
2023/05/17 05:56:05;;;;;;;;;3.25;3.00;;;;;11.39;63.75;100754.78;5096660;28;8826;-60
2023/05/17 05:58:33;;;;;;;;;7.00;4.50;;;;;11.49;63.81;100755.84;5095755;28;8863;-61
2023/05/17 06:01:01;;;;;;;;;5.50;5.50;;;;;11.59;63.57;100750.78;5095927;28;8844;-61
2023/05/17 06:03:32;;;;;;;;;4.00;3.00;;;;;11.65;63.44;100759.19;5095698;28;8861;-61
2023/05/17 06:06:00;;;;;;;;;4.00;4.00;;;;;11.70;63.89;100759.72;5096370;28;8834;-61
2023/05/17 06:08:28;;;;;;;;;4.00;3.75;;;;;11.79;63.39;100761.72;5096870;28;8842;-62
2023/05/17 06:10:56;;;;;;;;;3.75;3.00;;;;;11.89;63.12;100761.91;5097025;28;9620;-60
2023/05/17 06:13:24;;;;;;;;;2.00;2.00;;;;;11.98;63.32;100772.75;5096891;28;8834;-61
2023/05/17 06:15:51;;;;;;;;;5.00;4.00;;;;;12.07;63.01;100769.47;5097000;28;8850;-60
2023/05/17 06:18:19;;;;;;;;;2.50;1.50;;;;;12.18;62.94;100769.50;5096157;28;8858;-60
2023/05/17 06:20:47;;;;;;;;;4.50;4.00;;;;;12.34;63.01;100768.28;5095624;28;8934;-60
2023/05/17 06:23:15;;;;;;;;;2.00;1.00;;;;;12.44;62.53;100776.44;5095209;28;8930;-61
2023/05/17 06:25:43;;;;;;;;;3.00;1.50;;;;;12.48;62.58;100769.94;5094760;28;9788;-59
2023/05/17 06:28:11;;;;;;;;;2.00;1.00;;;;;12.39;62.86;100783.97;5095031;28;8853;-60
2023/05/17 06:30:39;;;;;;;;;3.00;2.50;;;;;12.26;62.93;100777.81;5095198;28;8822;-61
2023/05/17 06:33:07;;;;;;;;;0.00;0.00;;;;;12.13;63.15;100788.53;5094503;28;8837;-60
2023/05/17 06:35:35;;;;;;;;;3.00;2.00;;;;;12.12;63.63;100788.63;5094952;28;9856;-62
2023/05/17 06:38:20;;;;;;;;;1.00;1.00;;;;;12.20;63.47;100781.78;5096375;28;8860;-61
2023/05/17 06:40:48;;;;;;;;;2.75;2.00;;;;;12.22;63.23;100781.66;5096960;28;8865;-60
2023/05/17 06:43:16;;;;;;;;;2.50;1.50;;;;;12.33;63.02;100784.41;5096836;28;8962;-61
2023/05/17 06:45:44;;;;;;;;;3.00;3.00;;;;;12.46;62.75;100786.06;5097164;28;8968;-62
2023/05/17 06:48:12;;;;;;;;;1.00;1.00;;;;;12.58;62.82;100792.31;5096425;28;8973;-58
2023/05/17 06:50:40;;;;;;;;;3.00;3.00;;;;;12.62;62.73;100791.97;5096198;28;8915;-60
2023/05/17 06:53:08;;;;;;;;;3.00;1.00;;;;;12.64;62.56;100800.75;5096558;28;8857;-59
2023/05/17 06:55:36;;;;;;;;;1.00;1.00;;;;;12.69;62.41;100800.41;5097078;28;8841;-60
2023/05/17 06:58:04;;;;;;;;;2.50;2.00;;;;;12.74;62.47;100800.88;5096681;28;8841;-58
2023/05/17 07:00:31;;;;;;;;;0.75;0.00;;;;;12.72;62.43;100790.34;5096599;28;8927;-60
2023/05/17 07:02:59;;;;;;;;;1.00;1.00;;;;;12.71;62.64;100801.13;5096068;28;8864;-60
2023/05/17 07:05:29;;;;;;;;;1.50;1.50;;;;;12.68;62.35;100796.03;5096104;28;8886;-60
2023/05/17 07:07:57;;;;;;;;;1.00;1.00;;;;;12.68;62.59;100801.38;5096107;28;9489;-60
2023/05/17 07:10:25;;;;;;;;;1.00;1.00;;;;;12.70;62.37;100804.78;5095669;28;8933;-59
2023/05/17 07:12:53;;;;;;;;;1.00;1.00;;;;;12.72;62.98;100806.38;5095791;28;8842;-57
2023/05/17 07:15:22;;;;;;;;;1.00;1.00;;;;;12.78;62.31;100797.03;5095895;28;9836;-58
2023/05/17 07:17:50;;;;;;;;;2.00;2.00;;;;;13.00;62.29;100798.00;5095626;28;8838;-59
2023/05/17 07:20:18;;;;;;;;;3.00;2.00;;;;;13.36;61.20;100805.03;5095958;28;8833;-58
2023/05/17 07:22:47;;;;;;;;;2.00;1.00;;;;;13.67;60.47;100805.19;5095951;28;8845;-60
2023/05/17 07:25:16;;;;;;;;;0.00;0.00;;;;;13.94;59.79;100812.88;5096042;28;9622;-60
2023/05/17 07:27:46;;;;;;;;;1.00;1.00;;;;;14.19;59.92;100807.31;5096417;28;8842;-60
2023/05/17 07:30:14;;;;;;;;;1.00;1.00;;;;;14.43;59.11;100816.03;5096368;28;9658;-59
2023/05/17 07:32:42;;;;;;;;;1.00;1.00;;;;;14.51;59.05;100818.94;5095964;28;9566;-61
2023/05/17 07:35:09;;;;;;;;;2.00;1.00;;;;;14.59;58.50;100821.84;5096410;28;8849;-60
2023/05/17 07:37:37;;;;;;;;;1.00;1.00;;;;;14.55;58.61;100828.41;5096406;28;8876;-59
2023/05/17 07:40:05;;;;;;;;;1.00;1.00;;;;;14.42;58.88;100828.56;5095252;28;8965;-60
2023/05/17 07:42:33;;;;;;;;;1.00;1.00;;;;;14.43;58.85;100830.25;5095147;28;8843;-60
2023/05/17 07:45:01;;;;;;;;;0.00;0.00;;;;;14.43;58.58;100829.44;5093925;28;8946;-60
2023/05/17 07:47:29;;;;;;;;;0.25;0.25;;;;;14.25;58.54;100838.94;5093201;28;8964;-59
2023/05/17 07:49:57;;;;;;;;;0.50;0.50;;;;;14.06;59.72;100839.56;5093934;28;8833;-60
2023/05/17 07:52:25;;;;;;;;;1.00;1.00;;;;;14.01;59.93;100838.19;5094392;28;8852;-58
2023/05/17 07:54:53;;;;;;;;;0.50;0.00;;;;;14.16;59.09;100836.97;5094848;28;8854;-59
2023/05/17 07:57:21;;;;;;;;;0.50;0.50;;;;;14.34;58.95;100836.38;5094916;28;8845;-60
2023/05/17 07:59:49;;;;;;;;;0.00;0.00;;;;;14.30;58.75;100840.28;5095316;28;8932;-57
2023/05/17 08:02:17;;;;;;;;;4.00;2.50;;;;;14.34;58.11;100848.94;5095262;28;8834;-59
2023/05/17 08:04:45;;;;;;;;;1.00;1.00;;;;;14.51;58.14;100841.22;5095303;28;8866;-58
2023/05/17 08:07:13;;;;;;;;;0.75;0.25;;;;;14.77;57.39;100845.31;5095659;28;8842;-60
2023/05/17 08:09:44;;;;;;;;;3.00;1.00;;;;;14.92;57.33;100843.16;5095303;28;8837;-59
2023/05/17 08:12:12;;;;;;;;;0.50;0.50;;;;;14.97;57.17;100849.88;5095417;28;8923;-60
2023/05/17 08:14:39;;;;;;;;;1.25;0.50;;;;;15.01;56.66;100845.13;5095055;28;8841;-60
2023/05/17 08:17:07;;;;;;;;;1.00;0.00;;;;;15.11;56.51;100841.50;5094624;28;9707;-59
2023/05/17 08:19:35;;;;;;;;;0.00;0.00;;;;;15.23;56.16;100839.63;5094772;28;8972;-59
2023/05/17 08:22:03;;;;;;;;;3.00;3.00;;;;;15.28;56.34;100838.28;5094416;28;9797;-59
2023/05/17 08:24:31;;;;;;;;;1.00;1.00;;;;;15.36;55.99;100838.50;5094966;28;8979;-60
2023/05/17 08:26:59;;;;;;;;;0.50;0.50;;;;;15.59;55.02;100847.28;5094431;28;8842;-59
2023/05/17 08:29:28;;;;;;;;;0.50;0.50;;;;;15.76;54.54;100849.38;5093451;28;8829;-61
2023/05/17 08:31:56;;;;;;;;;0.25;0.25;;;;;15.65;55.31;100846.75;5093853;28;9007;-60
2023/05/17 08:34:24;;;;;;;;;0.75;0.75;;;;;15.49;55.24;100852.56;5093908;28;8857;-60
2023/05/17 08:36:52;;;;;;;;;1.00;1.00;;;;;15.27;55.11;100859.88;5093627;28;8884;-60
2023/05/17 08:39:20;;;;;;;;;1.00;1.00;;;;;15.04;55.86;100856.44;5094133;28;8927;-60
2023/05/17 08:41:48;;;;;;;;;0.75;0.75;;;;;14.77;56.19;100855.16;5094581;28;8834;-60
2023/05/17 08:44:16;;;;;;;;;1.00;1.00;;;;;14.46;56.89;100859.50;5094776;28;8833;-60
2023/05/17 08:46:44;;;;;;;;;2.00;2.00;;;;;14.22;57.30;100860.63;5094426;28;8854;-60
2023/05/17 08:49:14;;;;;;;;;2.00;2.00;;;;;14.14;57.75;100857.69;5094545;28;8845;-60
2023/05/17 08:51:42;;;;;;;;;0.25;0.25;;;;;14.13;57.41;100864.00;5093443;28;8838;-60
2023/05/17 08:54:10;;;;;;;;;1.00;1.00;;;;;14.27;57.43;100870.00;5093359;28;8838;-58
2023/05/17 08:56:39;;;;;;;;;1.00;1.00;;;;;14.49;56.84;100871.81;5093398;28;8945;-60
2023/05/17 08:59:07;;;;;;;;;0.25;0.25;;;;;14.78;56.09;100871.13;5093772;28;8834;-59
2023/05/17 09:01:35;;;;;;;;;0.25;0.25;;;;;15.02;55.39;100874.47;5093986;28;8826;-60
2023/05/17 09:04:03;;;;;;;;;2.50;1.00;;;;;15.27;54.67;100863.41;5094129;28;8953;-60
2023/05/17 09:06:31;;;;;;;;;1.00;0.00;;;;;15.54;54.06;100860.25;5094407;28;8874;-60
2023/05/17 09:09:00;;;;;;;;;1.00;1.00;;;;;15.78;53.75;100858.97;5094483;28;8856;-60
2023/05/17 09:11:28;;;;;;;;;1.00;1.00;;;;;16.07;53.41;100859.97;5094586;28;8853;-60
2023/05/17 09:13:56;;;;;;;;;1.50;1.00;;;;;16.32;52.53;100863.06;5092903;28;8842;-60
2023/05/17 09:16:25;;;;;;;;;0.00;0.00;;;;;16.60;52.52;100858.78;5092457;28;8838;-60
2023/05/17 09:18:53;;;;;;;;;0.00;0.00;;;;;16.78;52.24;100858.00;5092799;28;8860;-60
2023/05/17 09:21:22;;;;;;;;;0.80;0.80;;;;;16.91;51.47;100850.50;5092903;28;8826;-60
2023/05/17 09:23:50;;;;;;;;;1.80;1.00;;;;;17.02;51.03;100855.75;5092742;28;8830;-60
2023/05/17 09:26:32;;;;;;;;;0.00;0.00;;;;;17.25;51.26;100845.56;5092948;28;8964;-60
2023/05/17 09:29:01;;;;;;;;;0.00;0.00;;;;;17.46;50.99;100851.69;5092671;28;8848;-58
2023/05/17 09:31:30;;;;;;;;;0.60;0.60;;;;;17.44;50.56;100856.34;5093365;28;8857;-58
2023/05/17 09:33:58;;;;;;;;;1.00;1.00;;;;;17.41;50.61;100856.63;5093545;28;8873;-58
2023/05/17 09:36:26;;;;;;;;;0.40;0.40;;;;;17.50;50.25;100859.34;5092943;28;8830;-60
2023/05/17 09:38:54;;;;;;;;;1.00;1.00;;;;;17.59;49.61;100861.16;5093627;28;9519;-60
2023/05/17 09:41:22;;;;;;;;;2.00;1.40;;;;;17.72;49.58;100856.31;5093526;28;8862;-60
2023/05/17 09:43:50;;;;;;;;;3.00;1.00;;;;;17.85;49.17;100866.78;5092961;28;8854;-60
2023/05/17 09:46:18;;;;;;;;;0.00;0.00;;;;;18.10;48.88;100866.13;5092368;28;8837;-59
2023/05/17 09:48:46;;;;;;;;;1.00;1.00;;;;;18.45;47.99;100859.03;5092383;28;8844;-58
2023/05/17 09:51:15;;;;;;;;;0.60;0.60;;;;;18.37;48.52;100858.13;5093303;28;8853;-58
2023/05/17 09:53:42;;;;;;;;;0.80;0.00;;;;;17.96;48.76;100859.38;5092586;28;8919;-58
2023/05/17 09:56:12;;;;;;;;;0.00;0.00;;;;;17.49;50.14;100863.03;5092435;28;8864;-57
2023/05/17 09:58:40;;;;;;;;;3.00;2.20;;;;;17.36;49.94;100859.75;5092178;28;8845;-58
2023/05/17 10:01:09;;;;;;;;;3.20;1.00;;;;;17.67;49.58;100855.03;5093278;28;8874;-58
2023/05/17 10:03:37;;;;;;;;;0.80;0.80;;;;;17.59;49.39;100854.91;5093213;28;8846;-60
2023/05/17 10:06:06;;;;;;;;;0.00;0.00;;;;;17.35;50.37;100858.03;5092544;28;8826;-61
2023/05/17 10:08:35;;;;;;;;;1.80;1.80;;;;;16.93;50.96;100859.28;5094173;28;8846;-60
2023/05/17 10:11:03;;;;;;;;;0.80;0.80;;;;;16.76;51.76;100857.28;5096349;28;8864;-57
2023/05/17 10:13:31;;;;;;;;;1.00;1.00;;;;;16.83;51.26;100861.13;5096489;28;8845;-58
2023/05/17 10:15:59;;;;;;;;;1.00;0.40;;;;;17.27;50.48;100854.34;5096418;28;8825;-58
2023/05/17 10:18:30;;;;;;;;;0.00;0.00;;;;;18.13;49.03;100850.50;5095221;28;8841;-58
2023/05/17 10:20:59;;;;;;;;;0.60;0.60;;;;;19.09;47.75;100835.50;5095464;28;8854;-57
2023/05/17 10:23:27;;;;;;;;;1.00;1.00;;;;;19.37;46.70;100845.25;5096415;28;8880;-58
2023/05/17 10:25:55;;;;;;;;;0.80;0.80;;;;;18.90;47.08;100845.59;5095871;28;8927;-60
2023/05/17 10:28:22;;;;;;;;;3.00;1.80;;;;;18.24;48.62;100853.03;5095798;28;8842;-58
2023/05/17 10:30:50;;;;;;;;;0.00;0.00;;;;;17.85;49.38;100853.31;5096079;28;9740;-58
2023/05/17 10:33:18;;;;;;;;;1.00;1.00;;;;;18.45;47.74;100850.97;5094393;28;8933;-61
2023/05/17 10:35:47;;;;;;;;;3.00;3.00;;;;;19.43;47.09;100833.78;5095675;28;8850;-58
2023/05/17 10:38:14;;;;;;;;;0.40;0.40;;;;;20.37;45.10;100828.34;5096058;28;8846;-58
2023/05/17 10:40:43;;;;;;;;;2.40;2.20;;;;;20.70;44.79;100832.00;5095826;28;8861;-58
2023/05/17 10:43:11;;;;;;;;;2.40;2.40;;;;;20.98;44.26;100835.16;5096513;28;8865;-58
2023/05/17 10:45:39;;;;;;;;;1.20;1.20;;;;;20.87;44.61;100829.22;5096452;28;8845;-58
2023/05/17 10:48:07;;;;;;;;;3.60;2.20;;;;;20.23;45.25;100834.34;5095837;28;8830;-60
2023/05/17 10:50:35;;;;;;;;;1.00;1.00;;;;;20.03;45.73;100837.44;5095179;28;8869;-59
2023/05/17 10:53:04;;;;;;;;;3.20;1.80;;;;;20.55;45.13;100822.81;5095634;28;8849;-59
2023/05/17 10:55:32;;;;;;;;;2.00;2.00;;;;;21.17;43.84;100825.84;5095905;28;8860;-60
2023/05/17 10:58:00;;;;;;;;;0.80;0.80;;;;;21.87;42.96;100827.91;5095513;28;8838;-60
2023/05/17 11:00:32;;;;;;;;;3.80;3.60;;;;;22.51;41.87;100825.00;5095454;28;8837;-60
2023/05/17 11:03:01;;;;;;;;;4.00;3.20;;;;;23.17;41.50;100822.59;5095265;28;8917;-58
2023/05/17 11:05:29;;;;;;;;;1.00;1.00;;;;;23.72;40.39;100817.69;5094558;28;8948;-58
2023/05/17 11:07:58;;;;;;;;;2.00;1.20;;;;;24.17;39.27;100823.91;5094304;28;8846;-59
2023/05/17 11:10:26;;;;;;;;;2.00;2.00;;;;;24.56;39.88;100818.19;5094650;28;8853;-60
2023/05/17 11:12:56;;;;;;;;;4.00;2.00;;;;;24.70;39.93;100818.13;5096073;28;8842;-61
2023/05/17 11:15:24;;;;;;;;;3.20;2.00;;;;;23.56;40.65;100826.88;5095222;28;8860;-60
2023/05/17 11:17:53;;;;;;;;;1.00;1.00;;;;;22.85;42.38;100828.22;5096447;28;8834;-57
2023/05/17 11:20:21;;;;;;;;;2.00;2.00;;;;;22.88;41.61;100822.41;5095274;28;8927;-58
2023/05/17 11:22:50;;;;;;;;;2.00;2.00;;;;;22.17;42.87;100838.00;5096013;28;8838;-59
2023/05/17 11:25:17;;;;;;;;;1.00;1.00;;;;;21.51;43.92;100827.41;5095563;28;8842;-59
2023/05/17 11:27:45;;;;;;;;;2.40;2.40;;;;;21.31;44.24;100839.59;5094778;28;8884;-59
2023/05/17 11:30:13;;;;;;;;;2.40;1.00;;;;;21.11;44.34;100827.38;5094605;28;8842;-59
2023/05/17 11:32:42;;;;;;;;;3.60;3.60;;;;;20.54;45.12;100832.78;5094311;28;8849;-60
2023/05/17 11:35:10;;;;;;;;;1.80;1.60;;;;;19.95;46.43;100842.78;5093730;28;8861;-57
2023/05/17 11:37:38;;;;;;;;;2.00;2.00;;;;;19.41;46.91;100843.91;5094484;28;8837;-58
2023/05/17 11:40:06;;;;;;;;;1.80;1.80;;;;;18.96;47.55;100853.09;5093732;28;8838;-58